createdAt,value
2023-04-26T00:01:22.215Z,2.87
2023-04-26T00:04:34.409Z,2.97
2023-04-26T00:06:39.662Z,2.70
2023-04-26T00:08:43.429Z,2.93
2023-04-26T00:10:47.075Z,2.53
2023-04-26T00:12:50.749Z,2.73
2023-04-26T00:14:54.237Z,2.60
2023-04-26T00:16:59.256Z,3.10
2023-04-26T00:19:03.918Z,3.30
2023-04-26T00:21:24.152Z,3.03
2023-04-26T00:23:29.180Z,2.97
2023-04-26T00:25:32.779Z,3.10
2023-04-26T00:27:36.213Z,2.87
2023-04-26T00:29:40.282Z,2.80
2023-04-26T00:31:43.850Z,2.80
2023-04-26T00:33:47.714Z,2.97
2023-04-26T00:35:51.682Z,2.30
2023-04-26T00:37:55.297Z,3.13
2023-04-26T00:40:00.255Z,3.17
2023-04-26T00:42:04.086Z,3.27
2023-04-26T00:44:07.627Z,3.23
2023-04-26T00:46:11.303Z,3.20
2023-04-26T00:48:18.454Z,3.20
2023-04-26T00:50:22.509Z,3.23
2023-04-26T00:52:26.149Z,2.87
2023-04-26T00:54:33.443Z,3.03
2023-04-26T00:56:38.449Z,3.23
2023-04-26T00:58:41.849Z,2.83
2023-04-26T01:00:45.341Z,3.00
2023-04-26T01:02:49.215Z,3.03
2023-04-26T01:04:52.858Z,2.73
2023-04-26T01:06:57.889Z,2.80
2023-04-26T01:09:01.805Z,2.90
2023-04-26T01:11:05.602Z,3.60
2023-04-26T01:13:10.517Z,2.87
2023-04-26T01:15:14.103Z,3.20
2023-04-26T01:17:17.671Z,2.60
2023-04-26T01:19:21.580Z,2.40
2023-04-26T01:21:25.230Z,2.97
2023-04-26T01:24:16.149Z,3.00
2023-04-26T01:26:21.395Z,3.23
2023-04-26T01:28:25.039Z,2.60
2023-04-26T01:30:28.634Z,3.60
2023-04-26T01:32:32.612Z,2.90
2023-04-26T01:34:36.116Z,2.47
2023-04-26T01:36:39.907Z,2.87
2023-04-26T01:38:43.426Z,2.50
2023-04-26T01:40:47.338Z,2.33
2023-04-26T01:42:52.365Z,2.57
2023-04-26T01:49:16.665Z,2.80
2023-04-26T01:51:20.145Z,2.40
2023-04-26T01:53:23.715Z,2.27
2023-04-26T01:55:27.583Z,2.90
2023-04-26T01:57:32.201Z,2.73
2023-04-26T01:59:37.156Z,2.57
2023-04-26T02:01:42.902Z,3.07
2023-04-26T02:03:46.632Z,2.87
2023-04-26T02:06:52.445Z,2.90
2023-04-26T02:08:56.142Z,2.70
2023-04-26T02:11:00.669Z,2.50
2023-04-26T02:13:05.358Z,3.00
2023-04-26T02:15:11.172Z,2.63
2023-04-26T02:17:14.912Z,2.50
2023-04-26T02:20:14.167Z,2.60
2023-04-26T02:22:17.804Z,2.60
2023-04-26T02:24:21.789Z,2.53
2023-04-26T02:26:25.268Z,2.60
2023-04-26T02:28:28.895Z,2.73
2023-04-26T02:30:34.022Z,2.70
2023-04-26T02:32:37.710Z,2.60
2023-04-26T02:34:41.382Z,2.73
2023-04-26T02:36:44.849Z,2.73
2023-04-26T02:39:47.480Z,2.40
2023-04-26T02:41:51.206Z,2.97
2023-04-26T02:43:54.636Z,2.73
2023-04-26T02:46:01.472Z,2.73
2023-04-26T02:48:05.311Z,2.67
2023-04-26T02:50:09.471Z,2.53
2023-04-26T02:52:18.225Z,3.00
2023-04-26T02:54:21.700Z,2.60
2023-04-26T02:56:25.340Z,2.60
2023-04-26T02:58:28.791Z,2.70
2023-04-26T03:00:34.303Z,2.83
2023-04-26T03:02:39.460Z,2.60
2023-04-26T03:04:43.237Z,2.63
2023-04-26T03:06:46.703Z,2.70
2023-04-26T03:08:50.510Z,3.50
2023-04-26T03:11:53.219Z,2.77
2023-04-26T03:13:56.753Z,2.93
2023-04-26T03:16:00.194Z,2.70
2023-04-26T03:18:05.435Z,3.30
2023-04-26T03:20:11.948Z,3.03
2023-04-26T03:22:16.476Z,2.97
2023-04-26T03:24:20.441Z,3.50
2023-04-26T03:26:24.136Z,3.17
2023-04-26T03:28:28.051Z,2.93
2023-04-26T03:30:31.796Z,2.97
2023-04-26T03:36:58.118Z,3.30
2023-04-26T03:39:02.340Z,3.40
2023-04-26T03:41:06.425Z,3.23
2023-04-26T03:43:10.348Z,3.37
2023-04-26T03:45:14.466Z,3.20
2023-04-26T03:47:18.225Z,2.90
2023-04-26T03:49:22.442Z,3.27
2023-04-26T03:51:27.799Z,3.00
2023-04-26T03:53:33.085Z,2.77
2023-04-26T03:55:40.709Z,3.27
2023-04-26T03:57:44.309Z,2.77
2023-04-26T03:59:47.949Z,3.93
2023-04-26T04:01:52.780Z,2.97
2023-04-26T04:03:56.775Z,3.63
2023-04-26T04:06:00.568Z,3.00
2023-04-26T04:08:04.182Z,3.27
2023-04-26T04:10:11.807Z,3.30
2023-04-26T04:12:15.472Z,4.03
2023-04-26T04:14:19.272Z,4.10
2023-04-26T04:16:23.041Z,3.67
2023-04-26T04:18:26.633Z,3.93
2023-04-26T04:20:30.813Z,3.50
2023-04-26T04:22:34.380Z,3.60
2023-04-26T04:24:38.118Z,3.53
2023-04-26T04:26:43.187Z,3.67
2023-04-26T04:28:47.410Z,3.37
2023-04-26T04:31:14.261Z,3.37
2023-04-26T04:33:18.073Z,3.43
2023-04-26T04:35:21.868Z,3.40
2023-04-26T04:37:26.048Z,2.73
2023-04-26T04:39:29.990Z,2.80
2023-04-26T04:41:34.926Z,3.23
2023-04-26T04:43:40.059Z,3.00
2023-04-26T04:46:04.415Z,3.23
2023-04-26T04:48:09.555Z,3.70
2023-04-26T04:50:13.555Z,2.87
2023-04-26T04:52:18.926Z,2.73
2023-04-26T04:54:23.158Z,2.60
2023-04-26T04:56:27.672Z,3.47
2023-04-26T04:58:31.613Z,3.00
2023-04-26T05:01:11.744Z,2.80
2023-04-26T05:03:16.373Z,3.10
2023-04-26T05:05:20.766Z,3.30
2023-04-26T05:07:24.814Z,3.07
2023-04-26T05:09:29.659Z,3.17
2023-04-26T05:15:00.097Z,3.70
2023-04-26T05:17:06.042Z,3.10
2023-04-26T05:19:10.543Z,3.30
2023-04-26T05:21:41.690Z,3.13
2023-04-26T05:23:45.764Z,3.17
2023-04-26T05:25:50.008Z,3.47
2023-04-26T05:27:53.951Z,3.47
2023-04-26T05:29:58.019Z,4.00
2023-04-26T05:32:01.715Z,3.80
2023-04-26T05:34:08.165Z,3.63
2023-04-26T05:36:12.347Z,4.13
2023-04-26T05:38:16.743Z,3.85
2023-04-26T05:40:21.102Z,4.35
2023-04-26T05:42:28.208Z,4.93
2023-04-26T05:44:34.039Z,4.22
2023-04-26T05:46:37.989Z,4.45
2023-04-26T05:48:42.133Z,4.30
2023-04-26T05:50:47.544Z,5.03
2023-04-26T05:52:51.302Z,4.28
2023-04-26T05:54:54.967Z,4.63
2023-04-26T05:56:59.270Z,4.40
2023-04-26T05:59:03.197Z,4.32
2023-04-26T06:01:07.782Z,4.07
2023-04-26T06:03:13.172Z,3.83
2023-04-26T06:05:17.717Z,3.78
2023-04-26T06:07:25.303Z,4.10
2023-04-26T06:09:30.726Z,3.75
2023-04-26T06:11:34.330Z,3.22
2023-04-26T06:13:38.242Z,3.60
2023-04-26T06:15:42.701Z,3.60
2023-04-26T06:17:46.855Z,3.53
2023-04-26T06:19:50.827Z,3.75
2023-04-26T06:21:55.738Z,3.80
2023-04-26T06:24:01.116Z,3.78
2023-04-26T06:26:07.384Z,3.78
2023-04-26T06:28:11.299Z,3.95
2023-04-26T06:30:16.180Z,4.03
2023-04-26T06:32:20.335Z,3.50
2023-04-26T06:34:25.094Z,3.58
2023-04-26T06:36:29.402Z,3.67
2023-04-26T06:38:33.345Z,3.33
2023-04-26T06:40:39.165Z,3.70
2023-04-26T06:42:43.280Z,3.60
2023-04-26T06:44:47.246Z,3.55
2023-04-26T06:46:51.379Z,3.88
2023-04-26T06:48:55.893Z,3.75
2023-04-26T06:51:00.516Z,3.42
2023-04-26T06:53:04.718Z,4.18
2023-04-26T06:55:22.303Z,3.90
2023-04-26T06:57:28.834Z,3.50
2023-04-26T06:59:37.772Z,3.85
2023-04-26T07:01:41.702Z,3.95
2023-04-26T07:03:45.774Z,3.50
2023-04-26T07:05:50.021Z,4.07
2023-04-26T07:07:54.236Z,3.30
2023-04-26T07:09:58.131Z,3.95
2023-04-26T07:12:04.889Z,3.83
2023-04-26T07:14:10.753Z,3.55
2023-04-26T07:16:15.467Z,4.22
2023-04-26T07:18:23.686Z,4.05
2023-04-26T07:20:27.869Z,4.05
2023-04-26T07:22:31.822Z,4.00
2023-04-26T07:24:36.237Z,4.13
2023-04-26T07:26:40.289Z,4.63
2023-04-26T07:28:52.915Z,4.10
2023-04-26T07:30:58.309Z,3.67
2023-04-26T07:33:02.398Z,4.30
2023-04-26T07:35:10.716Z,4.07
2023-04-26T07:37:14.543Z,3.97
2023-04-26T07:39:18.267Z,4.00
2023-04-26T07:43:22.717Z,4.30
2023-04-26T07:45:26.919Z,4.28
2023-04-26T07:47:33.393Z,4.13
2023-04-26T07:49:45.701Z,3.95
2023-04-26T07:51:52.394Z,3.95
2023-04-26T07:53:59.388Z,3.60
2023-04-26T07:56:03.371Z,3.88
2023-04-26T07:58:08.243Z,4.38
2023-04-26T08:00:13.412Z,3.80
2023-04-26T08:02:17.561Z,4.13
2023-04-26T08:04:32.833Z,3.97
2023-04-26T08:06:38.963Z,3.95
2023-04-26T08:08:45.539Z,3.70
2023-04-26T08:10:49.670Z,3.92
2023-04-26T08:12:53.442Z,3.78
2023-04-26T08:14:57.402Z,3.80
2023-04-26T08:17:02.192Z,3.92
2023-04-26T08:19:06.492Z,3.80
2023-04-26T08:21:12.193Z,4.05
2023-04-26T08:23:16.202Z,3.22
2023-04-26T08:25:20.209Z,3.83
2023-04-26T08:27:24.223Z,4.03
2023-04-26T08:29:29.680Z,3.75
2023-04-26T08:31:33.715Z,3.38
2023-04-26T08:33:37.545Z,3.13
2023-04-26T08:35:41.568Z,3.63
2023-04-26T08:37:47.700Z,3.10
2023-04-26T08:39:51.324Z,3.20
2023-04-26T08:41:57.955Z,3.15
2023-04-26T08:44:14.337Z,3.05
2023-04-26T08:46:19.628Z,3.30
2023-04-26T08:48:23.664Z,3.28
2023-04-26T08:50:27.393Z,3.58
2023-04-26T08:53:10.382Z,3.50
2023-04-26T08:55:16.985Z,2.97
2023-04-26T08:57:21.202Z,3.78
2023-04-26T08:59:25.082Z,3.33
2023-04-26T09:01:28.982Z,2.92
2023-04-26T09:03:32.656Z,2.58
2023-04-26T09:05:36.915Z,2.63
2023-04-26T09:07:43.534Z,2.13
2023-04-26T09:09:48.549Z,2.08
2023-04-26T09:12:01.901Z,2.08
2023-04-26T09:14:06.672Z,1.88
2023-04-26T09:16:10.685Z,2.08
2023-04-26T09:18:21.547Z,2.17
2023-04-26T09:20:26.730Z,2.05
2023-04-26T09:22:33.405Z,1.92
2023-04-26T09:24:50.508Z,2.13
2023-04-26T09:27:05.855Z,2.58
2023-04-26T09:29:16.519Z,2.83
2023-04-26T09:31:42.378Z,2.90
2023-04-26T09:34:00.325Z,3.60
2023-04-26T09:36:13.389Z,3.45
2023-04-26T09:38:18.056Z,2.97
2023-04-26T09:40:22.279Z,3.00
2023-04-26T09:42:27.508Z,2.92
2023-04-26T09:44:31.494Z,3.03
2023-04-26T09:46:35.390Z,2.17
2023-04-26T09:48:39.197Z,1.95
2023-04-26T09:50:44.562Z,2.20
2023-04-26T09:52:48.793Z,2.10
2023-04-26T09:54:53.696Z,2.20
2023-04-26T09:57:04.277Z,1.85
2023-04-26T09:59:11.905Z,1.80
2023-04-26T10:01:16.556Z,1.75
2023-04-26T10:05:33.084Z,2.00
2023-04-26T10:07:38.014Z,2.40
2023-04-26T10:09:41.845Z,2.10
2023-04-26T10:11:54.555Z,1.73
2023-04-26T10:13:58.420Z,1.55
2023-04-26T10:16:04.145Z,2.15
2023-04-26T10:18:07.884Z,1.73
2023-04-26T10:20:13.363Z,2.10
2023-04-26T10:22:30.511Z,2.00
2023-04-26T10:24:34.390Z,1.63
2023-04-26T10:26:53.503Z,2.00
2023-04-26T10:29:02.650Z,1.80
2023-04-26T10:31:08.389Z,2.05
2023-04-26T10:33:27.230Z,1.75
2023-04-26T10:35:31.438Z,1.70
2023-04-26T10:37:35.447Z,2.20
2023-04-26T10:39:39.596Z,1.98
2023-04-26T10:41:43.483Z,1.88
2023-04-26T10:43:48.053Z,2.28
2023-04-26T10:45:52.072Z,2.63
2023-04-26T10:48:24.421Z,2.08
2023-04-26T10:50:28.762Z,1.90
2023-04-26T10:52:32.893Z,2.05
2023-04-26T10:54:56.743Z,2.03
2023-04-26T10:57:00.484Z,2.25
2023-04-26T11:01:19.234Z,2.10
2023-04-26T11:03:25.373Z,2.40
2023-04-26T11:05:42.284Z,2.00
2023-04-26T11:07:46.142Z,1.92
2023-04-26T11:09:50.843Z,2.38
2023-04-26T11:13:55.366Z,1.80
2023-04-26T11:16:03.533Z,1.90
2023-04-26T11:18:07.330Z,2.17
2023-04-26T11:20:17.380Z,1.80
2023-04-26T11:22:23.901Z,2.55
2023-04-26T11:24:27.696Z,2.00
2023-04-26T11:26:34.617Z,2.17
2023-04-26T11:28:39.750Z,2.22
2023-04-26T11:30:44.117Z,2.58
2023-04-26T11:32:49.259Z,2.08
2023-04-26T11:34:53.347Z,2.42
2023-04-26T11:37:07.414Z,2.38
2023-04-26T11:39:14.289Z,2.15
2023-04-26T11:41:18.617Z,2.00
2023-04-26T11:43:24.832Z,2.10
2023-04-26T11:45:28.996Z,2.03
2023-04-26T11:47:32.702Z,1.90
2023-04-26T11:49:38.495Z,1.95
2023-04-26T11:51:42.354Z,2.30
2023-04-26T11:54:01.514Z,1.92
2023-04-26T11:56:06.451Z,2.00
2023-04-26T11:58:14.965Z,2.42
2023-04-26T12:00:20.541Z,2.55
2023-04-26T12:02:37.784Z,2.45
2023-04-26T12:04:42.307Z,2.88
2023-04-26T12:06:46.651Z,2.58
2023-04-26T12:08:53.334Z,2.58
2023-04-26T12:11:00.952Z,2.30
2023-04-26T12:13:04.806Z,2.15
2023-04-26T12:15:13.824Z,1.88
2023-04-26T12:17:19.228Z,2.60
2023-04-26T12:19:25.949Z,2.35
2023-04-26T12:21:30.999Z,2.33
2023-04-26T12:23:42.126Z,2.50
2023-04-26T12:25:56.154Z,2.15
2023-04-26T12:28:01.752Z,2.28
2023-04-26T12:30:08.528Z,2.20
2023-04-26T12:32:12.537Z,2.50
2023-04-26T12:34:16.713Z,2.47
2023-04-26T12:36:21.438Z,2.22
2023-04-26T12:38:25.682Z,2.47
2023-04-26T12:40:29.672Z,2.35
2023-04-26T12:42:33.417Z,2.30
2023-04-26T12:44:38.871Z,1.98
2023-04-26T12:46:42.794Z,2.42
2023-04-26T12:48:46.796Z,2.10
2023-04-26T12:50:51.505Z,2.67
2023-04-26T12:52:55.805Z,2.40
2023-04-26T12:54:59.942Z,2.45
2023-04-26T12:57:06.095Z,2.30
2023-04-26T12:59:09.685Z,2.50
2023-04-26T13:01:15.331Z,2.22
2023-04-26T13:03:19.399Z,2.58
2023-04-26T13:05:24.873Z,2.38
2023-04-26T13:07:28.666Z,2.22
2023-04-26T13:09:34.244Z,2.25
2023-04-26T13:11:41.450Z,2.78
2023-04-26T13:13:46.158Z,2.33
2023-04-26T13:15:55.308Z,2.22
2023-04-26T13:18:01.608Z,2.35
2023-04-26T13:20:07.462Z,2.22
2023-04-26T13:22:12.861Z,3.05
2023-04-26T13:24:19.056Z,2.08
2023-04-26T13:26:24.395Z,2.08
2023-04-26T13:28:28.966Z,2.47
2023-04-26T13:30:33.315Z,2.53
2023-04-26T13:32:37.092Z,2.33
2023-04-26T13:34:45.950Z,2.53
2023-04-26T13:36:49.992Z,2.50
2023-04-26T13:38:54.244Z,2.67
2023-04-26T13:40:58.554Z,2.40
2023-04-26T13:43:02.413Z,2.25
2023-04-26T13:45:10.326Z,2.65
2023-04-26T13:47:14.488Z,2.42
2023-04-26T13:49:18.168Z,2.45
2023-04-26T13:51:23.354Z,2.22
2023-04-26T13:53:27.023Z,2.42
2023-04-26T13:55:30.939Z,2.45
2023-04-26T13:57:34.535Z,1.88
2023-04-26T13:59:38.297Z,2.47
2023-04-26T14:01:42.583Z,2.40
2023-04-26T14:03:46.518Z,2.45
2023-04-26T14:05:50.243Z,2.15
2023-04-26T14:07:55.677Z,2.55
2023-04-26T14:09:59.453Z,2.20
2023-04-26T14:12:08.614Z,2.15
2023-04-26T14:14:13.291Z,2.30
2023-04-26T14:16:17.323Z,2.33
2023-04-26T14:18:21.306Z,2.63
2023-04-26T14:20:24.935Z,2.63
2023-04-26T14:22:28.867Z,2.25
2023-04-26T14:24:34.253Z,2.35
2023-04-26T14:26:37.960Z,2.08
2023-04-26T14:28:42.155Z,2.65
2023-04-26T14:30:46.226Z,2.22
2023-04-26T14:32:50.112Z,2.15
2023-04-26T14:34:53.855Z,2.22
2023-04-26T14:37:01.866Z,2.08
2023-04-26T14:39:05.975Z,2.38
2023-04-26T14:41:11.462Z,1.88
2023-04-26T14:43:15.479Z,2.30
2023-04-26T14:45:19.218Z,1.95
2023-04-26T14:47:23.459Z,2.20
2023-04-26T14:49:27.226Z,2.00
2023-04-26T14:51:32.331Z,2.00
2023-04-26T14:53:36.182Z,1.98
2023-04-26T14:55:39.952Z,2.15
2023-04-26T14:57:45.582Z,2.45
2023-04-26T14:59:49.490Z,1.80
2023-04-26T15:01:53.502Z,2.00
2023-04-26T15:04:00.270Z,2.13
2023-04-26T15:06:04.709Z,2.30
2023-04-26T15:08:08.613Z,2.40
2023-04-26T15:10:12.731Z,2.33
2023-04-26T15:12:16.999Z,2.30
2023-04-26T15:14:22.465Z,2.65
2023-04-26T15:16:26.374Z,2.20
2023-04-26T15:18:30.199Z,2.20
2023-04-26T15:20:35.089Z,2.88
2023-04-26T15:22:39.178Z,2.88
2023-04-26T15:24:42.734Z,2.10
2023-04-26T15:26:46.781Z,2.13
2023-04-26T15:28:50.555Z,2.42
2023-04-26T15:31:02.557Z,2.33
2023-04-26T15:33:07.030Z,2.25
2023-04-26T15:35:13.843Z,2.33
2023-04-26T15:37:17.481Z,2.30
2023-04-26T15:39:21.445Z,2.30
2023-04-26T15:41:25.128Z,2.10
2023-04-26T15:43:28.819Z,2.33
2023-04-26T15:45:32.571Z,2.10
2023-04-26T15:47:38.150Z,2.08
2023-04-26T15:49:41.973Z,2.10
2023-04-26T15:51:45.903Z,2.45
2023-04-26T15:53:49.758Z,2.28
2023-04-26T15:55:53.245Z,2.30
2023-04-26T15:57:56.868Z,2.30
2023-04-26T16:00:00.996Z,2.20
2023-04-26T16:02:05.815Z,2.20
2023-04-26T16:04:11.443Z,2.00
2023-04-26T16:06:15.253Z,1.77
2023-04-26T16:08:38.786Z,2.05
2023-04-26T16:10:43.721Z,2.22
2023-04-26T16:12:47.473Z,2.28
2023-04-26T16:14:52.178Z,2.08
2023-04-26T16:16:56.027Z,2.30
2023-04-26T16:18:59.804Z,2.25
2023-04-26T16:21:08.392Z,2.03
2023-04-26T16:23:12.430Z,2.00
2023-04-26T16:25:17.541Z,2.05
2023-04-26T16:27:22.514Z,2.20
2023-04-26T16:29:26.514Z,2.05
2023-04-26T16:31:30.530Z,2.00
2023-04-26T16:33:34.928Z,2.00
2023-04-26T16:35:38.779Z,1.95
2023-04-26T16:37:44.851Z,2.10
2023-04-26T16:39:48.628Z,2.13
2023-04-26T16:41:55.573Z,2.30
2023-04-26T16:43:59.382Z,2.05
2023-04-26T16:46:03.616Z,2.42
2023-04-26T16:48:08.011Z,1.77
2023-04-26T16:50:12.593Z,2.35
2023-04-26T16:52:16.593Z,1.83
2023-04-26T16:54:25.906Z,2.03
2023-04-26T16:56:37.538Z,2.28
2023-04-26T16:58:44.126Z,2.35
2023-04-26T17:00:47.692Z,2.53
2023-04-26T17:02:52.877Z,2.40
2023-04-26T17:04:57.243Z,2.65
2023-04-26T17:07:01.430Z,2.55
2023-04-26T17:09:05.925Z,2.17
2023-04-26T17:11:11.400Z,2.03
2023-04-26T17:13:15.080Z,2.40
2023-04-26T17:15:18.857Z,2.60
2023-04-26T17:17:22.359Z,2.28
2023-04-26T17:19:26.397Z,2.70
2023-04-26T17:21:30.567Z,3.17
2023-04-26T17:23:34.587Z,2.83
2023-04-26T17:25:38.982Z,2.85
2023-04-26T17:27:44.248Z,2.88
2023-04-26T17:29:48.027Z,2.85
2023-04-26T17:31:51.946Z,3.47
2023-04-26T17:33:56.131Z,3.10
2023-04-26T17:35:59.867Z,2.95
2023-04-26T17:38:04.340Z,2.85
2023-04-26T17:40:09.625Z,2.60
2023-04-26T17:42:13.873Z,3.08
2023-04-26T17:44:19.285Z,2.70
2023-04-26T17:46:23.084Z,2.65
2023-04-26T17:48:26.772Z,2.92
2023-04-26T17:50:30.779Z,2.85
2023-04-26T17:52:34.963Z,2.83
2023-04-26T17:54:38.595Z,3.28
2023-04-26T17:56:42.251Z,2.95
2023-04-26T17:58:46.046Z,3.30
2023-04-26T18:00:51.828Z,2.88
2023-04-26T18:02:56.376Z,3.25
2023-04-26T18:05:00.420Z,3.05
2023-04-26T18:07:04.735Z,3.30
2023-04-26T18:09:11.013Z,3.17
2023-04-26T18:11:14.755Z,3.50
2023-04-26T18:13:19.216Z,3.53
2023-04-26T18:15:23.262Z,3.35
2023-04-26T18:17:28.270Z,3.53
2023-04-26T18:19:33.256Z,4.18
2023-04-26T18:21:37.230Z,3.70
2023-04-26T18:23:41.950Z,3.53
2023-04-26T18:25:45.945Z,3.53
2023-04-26T18:27:49.414Z,3.95
2023-04-26T18:29:53.235Z,4.00
2023-04-26T18:31:56.890Z,3.80
2023-04-26T18:34:02.109Z,3.78
2023-04-26T18:36:08.597Z,4.22
2023-04-26T18:38:12.153Z,3.60
2023-04-26T18:40:16.035Z,4.13
2023-04-26T18:42:19.947Z,3.80
2023-04-26T18:44:23.450Z,3.60
2023-04-26T18:46:27.308Z,3.10
2023-04-26T18:48:31.122Z,3.75
2023-04-26T18:50:36.378Z,3.05
2023-04-26T18:52:40.078Z,3.40
2023-04-26T18:54:50.093Z,3.60
2023-04-26T18:56:54.280Z,3.50
2023-04-26T18:58:57.862Z,3.17
2023-04-26T19:01:01.379Z,3.08
2023-04-26T19:03:05.469Z,3.45
2023-04-26T19:05:10.591Z,3.63
2023-04-26T19:07:16.047Z,3.85
2023-04-26T19:09:19.638Z,3.80
2023-04-26T19:11:42.220Z,3.85
2023-04-26T19:13:46.146Z,3.95
2023-04-26T19:15:49.966Z,3.92
2023-04-26T19:17:53.872Z,3.83
2023-04-26T19:19:58.259Z,3.90
2023-04-26T19:22:03.399Z,4.53
2023-04-26T19:24:09.415Z,4.05
2023-04-26T19:26:13.462Z,4.22
2023-04-26T19:28:17.389Z,4.65
2023-04-26T19:30:21.123Z,4.55
2023-04-26T19:32:24.741Z,4.32
2023-04-26T19:34:28.372Z,4.78
2023-04-26T19:36:31.899Z,4.18
2023-04-26T19:38:35.828Z,4.20
2023-04-26T19:40:42.677Z,4.07
2023-04-26T19:42:46.232Z,4.50
2023-04-26T19:44:49.999Z,4.43
2023-04-26T19:46:53.880Z,3.85
2023-04-26T19:48:57.481Z,3.75
2023-04-26T19:51:01.306Z,3.78
2023-04-26T19:53:16.525Z,3.28
2023-04-26T19:55:20.238Z,3.65
2023-04-26T19:57:25.362Z,3.65
2023-04-26T19:59:28.882Z,3.85
2023-04-26T20:01:32.605Z,3.45
2023-04-26T20:03:37.871Z,3.47
2023-04-26T20:05:41.672Z,3.58
2023-04-26T20:07:45.229Z,3.67
2023-04-26T20:10:09.621Z,3.60
2023-04-26T20:12:13.245Z,3.83
2023-04-26T20:14:18.489Z,3.97
2023-04-26T20:16:22.244Z,3.97
2023-04-26T20:19:11.019Z,3.75
2023-04-26T20:21:14.774Z,4.10
2023-04-26T20:23:18.387Z,3.97
2023-04-26T20:25:22.431Z,4.35
2023-04-26T20:27:26.185Z,3.50
2023-04-26T20:29:31.252Z,3.30
2023-04-26T20:31:35.180Z,3.60
2023-04-26T20:34:29.995Z,3.70
2023-04-26T20:36:33.617Z,3.97
2023-04-26T20:38:37.300Z,3.55
2023-04-26T20:40:40.932Z,3.73
2023-04-26T20:42:53.081Z,4.10
2023-04-26T20:45:00.488Z,3.87
2023-04-26T20:47:06.038Z,4.30
2023-04-26T20:49:09.993Z,3.97
2023-04-26T20:51:13.682Z,3.77
2023-04-26T20:53:17.165Z,4.03
2023-04-26T20:55:20.948Z,4.00
2023-04-26T20:57:24.650Z,4.20
2023-04-26T20:59:33.560Z,4.33
2023-04-26T21:01:38.410Z,4.20
2023-04-26T21:03:42.419Z,3.70
2023-04-26T21:05:46.004Z,3.90
2023-04-26T21:07:49.661Z,3.53
2023-04-26T21:09:59.502Z,3.53
2023-04-26T21:12:03.270Z,3.30
2023-04-26T21:14:07.366Z,3.63
2023-04-26T21:16:11.064Z,4.13
2023-04-26T21:18:16.221Z,3.43
2023-04-26T21:20:19.825Z,3.50
2023-04-26T21:22:23.333Z,3.80
2023-04-26T21:24:27.154Z,3.43
2023-04-26T21:26:49.099Z,3.93
2023-04-26T21:28:52.615Z,3.60
2023-04-26T21:31:04.778Z,4.30
2023-04-26T21:33:08.373Z,3.87
2023-04-26T21:35:13.640Z,4.20
2023-04-26T21:37:17.938Z,4.43
2023-04-26T21:39:21.408Z,5.20
2023-04-26T21:41:26.001Z,4.60
2023-04-26T21:43:40.901Z,4.70
2023-04-26T21:45:44.222Z,4.23
2023-04-26T21:47:47.912Z,3.70
2023-04-26T21:49:52.311Z,4.10
2023-04-26T21:51:57.468Z,4.20
2023-04-26T21:54:14.655Z,4.35
2023-04-26T21:56:18.094Z,3.93
2023-04-26T21:58:21.629Z,4.53
2023-04-26T22:00:27.250Z,4.30
2023-04-26T22:02:31.082Z,4.22
2023-04-26T22:04:34.552Z,4.53
2023-04-26T22:07:10.633Z,4.37
2023-04-26T22:09:14.279Z,4.43
2023-04-26T22:11:17.696Z,3.90
2023-04-26T22:13:21.546Z,4.10
2023-04-26T22:15:25.312Z,4.10
2023-04-26T22:17:28.870Z,4.00
2023-04-26T22:19:32.392Z,4.40
2023-04-26T22:21:36.772Z,4.43
2023-04-26T22:23:41.825Z,3.97
2023-04-26T22:26:00.639Z,4.17
2023-04-26T22:28:04.488Z,4.05
2023-04-26T22:30:23.699Z,4.47
2023-04-26T22:32:28.667Z,3.90
2023-04-26T22:34:32.246Z,4.35
2023-04-26T22:36:35.984Z,4.27
2023-04-26T22:38:39.882Z,4.20
2023-04-26T22:40:44.977Z,4.20
2023-04-26T22:42:48.473Z,4.07
2023-04-26T22:44:53.398Z,4.30
2023-04-26T22:46:59.450Z,4.32
2023-04-26T22:49:03.085Z,4.07
2023-04-26T22:51:07.273Z,3.85
2023-04-26T22:53:10.789Z,3.70
2023-04-26T22:55:14.258Z,4.30
2023-04-26T22:57:19.732Z,4.27
2023-04-26T22:59:23.321Z,3.97
2023-04-26T23:01:36.187Z,3.97
2023-04-26T23:03:39.864Z,3.23
2023-04-26T23:05:43.416Z,3.65
2023-04-26T23:07:46.926Z,3.50
2023-04-26T23:09:50.374Z,3.63
2023-04-26T23:11:53.934Z,3.40
2023-04-26T23:14:01.215Z,3.85
2023-04-26T23:16:05.531Z,4.07
2023-04-26T23:18:16.345Z,3.87
2023-04-26T23:20:20.004Z,3.47
2023-04-26T23:22:23.452Z,3.30
2023-04-26T23:24:27.195Z,3.28
2023-04-26T23:26:30.710Z,3.75
2023-04-26T23:28:34.257Z,3.25
2023-04-26T23:30:39.345Z,4.05
2023-04-26T23:32:42.917Z,3.20
2023-04-26T23:34:46.728Z,3.53
2023-04-26T23:37:13.956Z,3.47
2023-04-26T23:39:17.946Z,4.05
2023-04-26T23:41:21.367Z,3.33
2023-04-26T23:43:24.925Z,3.92
2023-04-26T23:45:28.343Z,3.58
2023-04-26T23:47:33.410Z,3.63
2023-04-26T23:49:37.113Z,3.40
2023-04-26T23:51:40.718Z,3.08
2023-04-26T23:53:44.655Z,3.50
2023-04-26T23:55:48.141Z,3.10
2023-04-26T23:57:51.552Z,3.15
2023-04-26T23:59:54.816Z,3.10
